sensor_id;sensor_type;location;lat;lon;timestamp;temperature;humidity
32428;DHT22;18882;50.952;4.366;2024-02-15T00:02:20;13.60;99.90
32428;DHT22;18882;50.952;4.366;2024-02-15T00:04:54;13.60;99.90
32428;DHT22;18882;50.952;4.366;2024-02-15T00:07:45;13.60;99.90
32428;DHT22;18882;50.952;4.366;2024-02-15T00:11:17;13.60;99.90
32428;DHT22;18882;50.952;4.366;2024-02-15T00:14:18;13.60;99.90
32428;DHT22;18882;50.952;4.366;2024-02-15T00:16:54;13.60;99.90
32428;DHT22;18882;50.952;4.366;2024-02-15T00:19:25;13.60;99.90
32428;DHT22;18882;50.952;4.366;2024-02-15T00:22:26;13.60;99.90
32428;DHT22;18882;50.952;4.366;2024-02-15T00:28:08;13.60;99.90
32428;DHT22;18882;50.952;4.366;2024-02-15T00:30:55;13.50;99.90
32428;DHT22;18882;50.952;4.366;2024-02-15T00:33:39;13.50;99.90
32428;DHT22;18882;50.952;4.366;2024-02-15T00:36:41;13.50;99.90
32428;DHT22;18882;50.952;4.366;2024-02-15T00:39:10;13.60;99.90
32428;DHT22;18882;50.952;4.366;2024-02-15T00:41:49;13.60;99.90
32428;DHT22;18882;50.952;4.366;2024-02-15T00:45:32;13.70;99.90
32428;DHT22;18882;50.952;4.366;2024-02-15T00:48:46;13.70;99.90
32428;DHT22;18882;50.952;4.366;2024-02-15T00:51:47;13.70;99.90
32428;DHT22;18882;50.952;4.366;2024-02-15T00:54:35;13.70;99.90
32428;DHT22;18882;50.952;4.366;2024-02-15T00:57:28;13.80;99.90
32428;DHT22;18882;50.952;4.366;2024-02-15T01:00:17;13.80;99.90
32428;DHT22;18882;50.952;4.366;2024-02-15T01:02:45;13.80;99.90
32428;DHT22;18882;50.952;4.366;2024-02-15T01:05:19;13.70;99.90
32428;DHT22;18882;50.952;4.366;2024-02-15T01:08:28;13.70;99.90
32428;DHT22;18882;50.952;4.366;2024-02-15T01:10:55;13.70;99.90
32428;DHT22;18882;50.952;4.366;2024-02-15T01:13:28;13.70;99.90
32428;DHT22;18882;50.952;4.366;2024-02-15T01:16:12;13.70;99.90
32428;DHT22;18882;50.952;4.366;2024-02-15T01:19:04;13.80;99.90
32428;DHT22;18882;50.952;4.366;2024-02-15T01:21:36;13.80;99.90
32428;DHT22;18882;50.952;4.366;2024-02-15T01:24:06;13.70;99.90
32428;DHT22;18882;50.952;4.366;2024-02-15T01:26:34;13.80;99.90
32428;DHT22;18882;50.952;4.366;2024-02-15T01:29:23;13.80;99.90
32428;DHT22;18882;50.952;4.366;2024-02-15T01:32:04;13.70;99.90
32428;DHT22;18882;50.952;4.366;2024-02-15T01:34:37;13.70;99.90
32428;DHT22;18882;50.952;4.366;2024-02-15T01:37:28;13.60;99.90
32428;DHT22;18882;50.952;4.366;2024-02-15T01:40:13;13.60;99.90
32428;DHT22;18882;50.952;4.366;2024-02-15T01:42:53;13.70;99.90
32428;DHT22;18882;50.952;4.366;2024-02-15T01:45:59;13.70;99.90
32428;DHT22;18882;50.952;4.366;2024-02-15T01:52:19;13.60;99.90
32428;DHT22;18882;50.952;4.366;2024-02-15T01:55:08;13.60;99.90
32428;DHT22;18882;50.952;4.366;2024-02-15T01:57:45;13.60;99.90
32428;DHT22;18882;50.952;4.366;2024-02-15T02:00:25;13.60;99.90
32428;DHT22;18882;50.952;4.366;2024-02-15T02:03:03;13.60;99.90
32428;DHT22;18882;50.952;4.366;2024-02-15T02:05:44;13.70;99.90
32428;DHT22;18882;50.952;4.366;2024-02-15T02:08:51;13.70;99.90
32428;DHT22;18882;50.952;4.366;2024-02-15T02:11:33;13.70;99.90
32428;DHT22;18882;50.952;4.366;2024-02-15T02:14:16;13.70;99.90
32428;DHT22;18882;50.952;4.366;2024-02-15T02:16:45;13.60;99.90
32428;DHT22;18882;50.952;4.366;2024-02-15T02:19:23;13.60;99.90
32428;DHT22;18882;50.952;4.366;2024-02-15T02:21:50;13.60;99.90
32428;DHT22;18882;50.952;4.366;2024-02-15T02:27:27;13.70;99.90
32428;DHT22;18882;50.952;4.366;2024-02-15T02:29:58;13.60;99.90
32428;DHT22;18882;50.952;4.366;2024-02-15T02:32:34;13.60;99.90
32428;DHT22;18882;50.952;4.366;2024-02-15T02:35:32;13.60;99.90
32428;DHT22;18882;50.952;4.366;2024-02-15T02:38:05;13.60;99.90
32428;DHT22;18882;50.952;4.366;2024-02-15T02:40:38;13.70;99.90
32428;DHT22;18882;50.952;4.366;2024-02-15T02:43:07;13.70;99.90
32428;DHT22;18882;50.952;4.366;2024-02-15T02:45:44;13.70;99.90
32428;DHT22;18882;50.952;4.366;2024-02-15T02:48:46;13.80;99.90
32428;DHT22;18882;50.952;4.366;2024-02-15T02:51:38;13.70;99.90
32428;DHT22;18882;50.952;4.366;2024-02-15T02:54:48;13.50;99.90
32428;DHT22;18882;50.952;4.366;2024-02-15T05:46:14;12.90;99.90
32428;DHT22;18882;50.952;4.366;2024-02-15T05:48:40;13.00;99.90
32428;DHT22;18882;50.952;4.366;2024-02-15T05:51:07;12.90;99.90
32428;DHT22;18882;50.952;4.366;2024-02-15T05:53:34;12.90;99.90
32428;DHT22;18882;50.952;4.366;2024-02-15T05:56:04;13.00;99.90
32428;DHT22;18882;50.952;4.366;2024-02-15T05:58:30;13.00;99.90
32428;DHT22;18882;50.952;4.366;2024-02-15T06:00:57;13.10;99.90
32428;DHT22;18882;50.952;4.366;2024-02-15T06:03:30;13.00;99.90
32428;DHT22;18882;50.952;4.366;2024-02-15T06:05:57;13.00;99.90
32428;DHT22;18882;50.952;4.366;2024-02-15T06:08:30;13.10;99.90
32428;DHT22;18882;50.952;4.366;2024-02-15T06:10:56;13.10;99.90
32428;DHT22;18882;50.952;4.366;2024-02-15T06:13:22;13.10;99.90
32428;DHT22;18882;50.952;4.366;2024-02-15T06:15:49;13.10;99.90
32428;DHT22;18882;50.952;4.366;2024-02-15T06:18:23;13.20;99.90
32428;DHT22;18882;50.952;4.366;2024-02-15T06:20:53;13.20;99.90
32428;DHT22;18882;50.952;4.366;2024-02-15T06:23:20;13.20;99.90
32428;DHT22;18882;50.952;4.366;2024-02-15T06:25:46;13.20;99.90
32428;DHT22;18882;50.952;4.366;2024-02-15T06:28:15;13.30;99.90
32428;DHT22;18882;50.952;4.366;2024-02-15T06:30:59;13.30;99.90
32428;DHT22;18882;50.952;4.366;2024-02-15T06:33:43;13.30;99.90
32428;DHT22;18882;50.952;4.366;2024-02-15T06:36:27;13.40;99.90
32428;DHT22;18882;50.952;4.366;2024-02-15T06:39:11;13.40;99.90
32428;DHT22;18882;50.952;4.366;2024-02-15T06:41:55;13.30;99.90
32428;DHT22;18882;50.952;4.366;2024-02-15T06:44:22;13.30;99.90
32428;DHT22;18882;50.952;4.366;2024-02-15T06:46:49;13.30;99.90
32428;DHT22;18882;50.952;4.366;2024-02-15T06:49:15;13.30;99.90
32428;DHT22;18882;50.952;4.366;2024-02-15T06:51:42;13.30;99.90
32428;DHT22;18882;50.952;4.366;2024-02-15T06:54:07;13.20;99.90
32428;DHT22;18882;50.952;4.366;2024-02-15T06:56:39;13.20;99.90
32428;DHT22;18882;50.952;4.366;2024-02-15T06:59:06;13.20;99.90
32428;DHT22;18882;50.952;4.366;2024-02-15T07:01:32;13.30;99.90
32428;DHT22;18882;50.952;4.366;2024-02-15T07:04:00;13.40;99.90
32428;DHT22;18882;50.952;4.366;2024-02-15T07:06:26;13.40;99.90
32428;DHT22;18882;50.952;4.366;2024-02-15T07:08:52;13.40;99.90
32428;DHT22;18882;50.952;4.366;2024-02-15T07:11:20;13.40;99.90
32428;DHT22;18882;50.952;4.366;2024-02-15T07:13:47;13.40;99.90
32428;DHT22;18882;50.952;4.366;2024-02-15T07:16:12;13.50;99.90
32428;DHT22;18882;50.952;4.366;2024-02-15T07:18:39;13.60;99.90
32428;DHT22;18882;50.952;4.366;2024-02-15T07:21:04;13.60;99.90
32428;DHT22;18882;50.952;4.366;2024-02-15T07:23:36;13.60;99.90
32428;DHT22;18882;50.952;4.366;2024-02-15T07:26:02;13.60;99.90
32428;DHT22;18882;50.952;4.366;2024-02-15T07:28:29;13.70;99.90
32428;DHT22;18882;50.952;4.366;2024-02-15T07:30:56;13.80;99.90
32428;DHT22;18882;50.952;4.366;2024-02-15T07:33:22;13.70;99.90
32428;DHT22;18882;50.952;4.366;2024-02-15T07:35:49;13.70;99.90
32428;DHT22;18882;50.952;4.366;2024-02-15T07:38:17;13.80;99.90
32428;DHT22;18882;50.952;4.366;2024-02-15T07:40:43;13.80;99.90
32428;DHT22;18882;50.952;4.366;2024-02-15T07:43:09;13.90;99.90
32428;DHT22;18882;50.952;4.366;2024-02-15T07:45:35;13.80;99.90
32428;DHT22;18882;50.952;4.366;2024-02-15T07:48:05;13.80;99.90
32428;DHT22;18882;50.952;4.366;2024-02-15T07:50:31;14.00;99.90
32428;DHT22;18882;50.952;4.366;2024-02-15T07:52:57;13.90;99.90
32428;DHT22;18882;50.952;4.366;2024-02-15T07:55:23;13.90;99.90
32428;DHT22;18882;50.952;4.366;2024-02-15T07:57:50;13.90;99.90
32428;DHT22;18882;50.952;4.366;2024-02-15T08:00:17;13.90;99.90
32428;DHT22;18882;50.952;4.366;2024-02-15T08:02:43;14.00;99.90
32428;DHT22;18882;50.952;4.366;2024-02-15T08:05:12;14.10;99.90
32428;DHT22;18882;50.952;4.366;2024-02-15T08:07:44;14.00;99.90
32428;DHT22;18882;50.952;4.366;2024-02-15T08:10:11;14.10;99.90
32428;DHT22;18882;50.952;4.366;2024-02-15T08:12:46;14.20;99.90
32428;DHT22;18882;50.952;4.366;2024-02-15T08:15:12;14.20;99.90
32428;DHT22;18882;50.952;4.366;2024-02-15T08:17:43;14.30;99.90
32428;DHT22;18882;50.952;4.366;2024-02-15T08:20:11;14.30;99.90
32428;DHT22;18882;50.952;4.366;2024-02-15T08:22:38;14.40;99.90
32428;DHT22;18882;50.952;4.366;2024-02-15T08:25:11;14.40;99.90
32428;DHT22;18882;50.952;4.366;2024-02-15T08:27:38;14.40;99.90
32428;DHT22;18882;50.952;4.366;2024-02-15T08:30:13;14.30;99.90
32428;DHT22;18882;50.952;4.366;2024-02-15T08:32:43;14.50;99.90
32428;DHT22;18882;50.952;4.366;2024-02-15T08:35:12;14.50;99.90
32428;DHT22;18882;50.952;4.366;2024-02-15T08:37:39;14.60;99.90
32428;DHT22;18882;50.952;4.366;2024-02-15T08:40:05;14.70;99.90
32428;DHT22;18882;50.952;4.366;2024-02-15T08:42:44;14.70;99.90
32428;DHT22;18882;50.952;4.366;2024-02-15T08:45:11;14.70;99.90
32428;DHT22;18882;50.952;4.366;2024-02-15T08:47:42;14.80;99.90
32428;DHT22;18882;50.952;4.366;2024-02-15T08:50:09;14.90;99.90
32428;DHT22;18882;50.952;4.366;2024-02-15T08:52:39;14.90;99.90
32428;DHT22;18882;50.952;4.366;2024-02-15T08:55:11;15.00;99.90
32428;DHT22;18882;50.952;4.366;2024-02-15T08:57:39;15.10;99.90
32428;DHT22;18882;50.952;4.366;2024-02-15T09:00:07;15.20;99.90
32428;DHT22;18882;50.952;4.366;2024-02-15T09:02:39;15.30;99.90
32428;DHT22;18882;50.952;4.366;2024-02-15T09:05:06;15.20;99.90
32428;DHT22;18882;50.952;4.366;2024-02-15T09:07:31;15.20;99.90
32428;DHT22;18882;50.952;4.366;2024-02-15T09:09:57;15.30;99.90
32428;DHT22;18882;50.952;4.366;2024-02-15T09:12:23;15.40;99.90
32428;DHT22;18882;50.952;4.366;2024-02-15T09:14:48;15.40;99.90
32428;DHT22;18882;50.952;4.366;2024-02-15T09:17:14;15.40;99.90
32428;DHT22;18882;50.952;4.366;2024-02-15T09:19:40;15.30;99.90
32428;DHT22;18882;50.952;4.366;2024-02-15T09:22:07;15.30;99.90
32428;DHT22;18882;50.952;4.366;2024-02-15T09:24:32;15.20;99.90
32428;DHT22;18882;50.952;4.366;2024-02-15T09:27:00;15.30;99.90
32428;DHT22;18882;50.952;4.366;2024-02-15T09:29:30;15.30;99.90
32428;DHT22;18882;50.952;4.366;2024-02-15T09:31:58;15.40;99.90
32428;DHT22;18882;50.952;4.366;2024-02-15T09:34:24;15.40;99.90
32428;DHT22;18882;50.952;4.366;2024-02-15T09:36:50;15.50;99.90
32428;DHT22;18882;50.952;4.366;2024-02-15T09:39:16;15.50;99.90
32428;DHT22;18882;50.952;4.366;2024-02-15T09:41:43;15.60;99.90
32428;DHT22;18882;50.952;4.366;2024-02-15T09:44:09;15.70;99.90
32428;DHT22;18882;50.952;4.366;2024-02-15T09:46:36;15.60;99.90
32428;DHT22;18882;50.952;4.366;2024-02-15T09:49:07;15.70;99.90
32428;DHT22;18882;50.952;4.366;2024-02-15T09:51:33;15.80;99.90
32428;DHT22;18882;50.952;4.366;2024-02-15T09:54:00;15.90;99.90
32428;DHT22;18882;50.952;4.366;2024-02-15T09:56:28;16.00;99.90
32428;DHT22;18882;50.952;4.366;2024-02-15T09:58:56;16.20;99.90
32428;DHT22;18882;50.952;4.366;2024-02-15T10:01:23;16.40;99.90
32428;DHT22;18882;50.952;4.366;2024-02-15T10:03:49;16.60;99.90
32428;DHT22;18882;50.952;4.366;2024-02-15T10:06:18;16.60;99.90
32428;DHT22;18882;50.952;4.366;2024-02-15T10:08:44;16.80;99.90
32428;DHT22;18882;50.952;4.366;2024-02-15T10:11:12;16.70;99.90
32428;DHT22;18882;50.952;4.366;2024-02-15T10:13:38;16.70;99.90
32428;DHT22;18882;50.952;4.366;2024-02-15T10:16:18;16.70;99.90
32428;DHT22;18882;50.952;4.366;2024-02-15T10:18:45;17.00;99.90
32428;DHT22;18882;50.952;4.366;2024-02-15T10:21:32;17.00;99.90
32428;DHT22;18882;50.952;4.366;2024-02-15T10:24:08;17.10;99.90
32428;DHT22;18882;50.952;4.366;2024-02-15T10:26:35;17.10;99.90
32428;DHT22;18882;50.952;4.366;2024-02-15T10:29:06;17.10;99.90
32428;DHT22;18882;50.952;4.366;2024-02-15T10:31:37;17.10;99.90
32428;DHT22;18882;50.952;4.366;2024-02-15T10:34:04;17.10;99.90
32428;DHT22;18882;50.952;4.366;2024-02-15T10:36:31;17.10;99.90
32428;DHT22;18882;50.952;4.366;2024-02-15T10:39:14;17.10;99.90
32428;DHT22;18882;50.952;4.366;2024-02-15T10:41:46;17.10;99.90
32428;DHT22;18882;50.952;4.366;2024-02-15T10:44:17;17.10;99.90
32428;DHT22;18882;50.952;4.366;2024-02-15T10:46:53;17.20;99.90
32428;DHT22;18882;50.952;4.366;2024-02-15T10:49:24;17.20;99.90
32428;DHT22;18882;50.952;4.366;2024-02-15T10:51:58;17.20;99.90
32428;DHT22;18882;50.952;4.366;2024-02-15T10:54:47;17.20;99.90
32428;DHT22;18882;50.952;4.366;2024-02-15T10:57:20;17.30;99.90
32428;DHT22;18882;50.952;4.366;2024-02-15T10:59:58;17.30;99.90
32428;DHT22;18882;50.952;4.366;2024-02-15T11:02:54;17.30;99.90
32428;DHT22;18882;50.952;4.366;2024-02-15T11:05:33;17.30;99.90
32428;DHT22;18882;50.952;4.366;2024-02-15T11:08:07;17.40;99.90
32428;DHT22;18882;50.952;4.366;2024-02-15T11:10:37;17.50;99.90
32428;DHT22;18882;50.952;4.366;2024-02-15T11:13:04;17.40;99.90
32428;DHT22;18882;50.952;4.366;2024-02-15T11:15:50;17.40;99.90
32428;DHT22;18882;50.952;4.366;2024-02-15T11:18:47;17.40;99.90
32428;DHT22;18882;50.952;4.366;2024-02-15T11:21:55;17.30;99.90
32428;DHT22;18882;50.952;4.366;2024-02-15T11:24:28;17.40;99.90
32428;DHT22;18882;50.952;4.366;2024-02-15T11:26:58;17.50;99.90
32428;DHT22;18882;50.952;4.366;2024-02-15T11:29:50;17.60;99.90
32428;DHT22;18882;50.952;4.366;2024-02-15T11:35:30;17.60;99.90
32428;DHT22;18882;50.952;4.366;2024-02-15T11:37:57;17.70;99.90
32428;DHT22;18882;50.952;4.366;2024-02-15T11:43:01;18.00;99.90
32428;DHT22;18882;50.952;4.366;2024-02-15T11:45:28;18.00;99.90
32428;DHT22;18882;50.952;4.366;2024-02-15T11:48:11;17.90;99.90
32428;DHT22;18882;50.952;4.366;2024-02-15T11:50:38;17.90;99.90
32428;DHT22;18882;50.952;4.366;2024-02-15T11:53:08;17.80;99.90
32428;DHT22;18882;50.952;4.366;2024-02-15T11:55:37;17.80;99.90
32428;DHT22;18882;50.952;4.366;2024-02-15T11:58:04;17.90;99.90
32428;DHT22;18882;50.952;4.366;2024-02-15T12:00:38;17.90;99.90
32428;DHT22;18882;50.952;4.366;2024-02-15T12:03:23;18.00;99.90
32428;DHT22;18882;50.952;4.366;2024-02-15T12:06:08;18.00;99.90
32428;DHT22;18882;50.952;4.366;2024-02-15T12:08:53;17.80;99.90
32428;DHT22;18882;50.952;4.366;2024-02-15T12:11:38;17.80;99.90
32428;DHT22;18882;50.952;4.366;2024-02-15T12:14:22;17.80;99.90
32428;DHT22;18882;50.952;4.366;2024-02-15T12:17:07;17.70;99.90
32428;DHT22;18882;50.952;4.366;2024-02-15T12:19:53;17.80;99.90
32428;DHT22;18882;50.952;4.366;2024-02-15T12:22:36;17.80;99.90
32428;DHT22;18882;50.952;4.366;2024-02-15T12:25:06;17.90;99.90
32428;DHT22;18882;50.952;4.366;2024-02-15T12:27:40;17.90;99.90
32428;DHT22;18882;50.952;4.366;2024-02-15T12:30:06;17.90;99.90
32428;DHT22;18882;50.952;4.366;2024-02-15T12:32:33;18.00;99.90
32428;DHT22;18882;50.952;4.366;2024-02-15T12:35:13;17.80;99.90
32428;DHT22;18882;50.952;4.366;2024-02-15T12:38:02;17.70;99.90
32428;DHT22;18882;50.952;4.366;2024-02-15T12:40:33;17.60;99.90
32428;DHT22;18882;50.952;4.366;2024-02-15T12:42:59;17.60;99.90
32428;DHT22;18882;50.952;4.366;2024-02-15T12:45:26;17.60;99.90
32428;DHT22;18882;50.952;4.366;2024-02-15T12:47:55;17.80;99.90
32428;DHT22;18882;50.952;4.366;2024-02-15T12:50:28;17.90;99.90
32428;DHT22;18882;50.952;4.366;2024-02-15T12:52:54;17.90;99.90
32428;DHT22;18882;50.952;4.366;2024-02-15T12:55:31;18.20;99.90
32428;DHT22;18882;50.952;4.366;2024-02-15T12:58:00;18.40;99.90
32428;DHT22;18882;50.952;4.366;2024-02-15T13:00:31;18.40;99.90
32428;DHT22;18882;50.952;4.366;2024-02-15T13:02:59;18.40;99.90
32428;DHT22;18882;50.952;4.366;2024-02-15T13:05:26;18.40;99.90
32428;DHT22;18882;50.952;4.366;2024-02-15T13:07:53;18.50;99.90
32428;DHT22;18882;50.952;4.366;2024-02-15T13:10:23;18.70;99.90
32428;DHT22;18882;50.952;4.366;2024-02-15T13:12:54;18.90;99.90
32428;DHT22;18882;50.952;4.366;2024-02-15T13:15:21;18.90;99.90
32428;DHT22;18882;50.952;4.366;2024-02-15T13:17:51;18.90;99.90
32428;DHT22;18882;50.952;4.366;2024-02-15T13:20:17;18.70;99.90
32428;DHT22;18882;50.952;4.366;2024-02-15T13:22:46;18.60;99.90
32428;DHT22;18882;50.952;4.366;2024-02-15T13:25:13;18.60;99.90
32428;DHT22;18882;50.952;4.366;2024-02-15T13:27:42;18.70;99.90
32428;DHT22;18882;50.952;4.366;2024-02-15T13:30:09;18.70;99.90
32428;DHT22;18882;50.952;4.366;2024-02-15T13:32:41;18.70;99.90
32428;DHT22;18882;50.952;4.366;2024-02-15T13:35:08;18.70;99.90
32428;DHT22;18882;50.952;4.366;2024-02-15T13:37:46;18.60;99.90
32428;DHT22;18882;50.952;4.366;2024-02-15T13:40:13;18.80;99.90
32428;DHT22;18882;50.952;4.366;2024-02-15T13:45:12;18.70;99.90
32428;DHT22;18882;50.952;4.366;2024-02-15T13:47:39;18.80;99.90
32428;DHT22;18882;50.952;4.366;2024-02-15T13:50:05;18.90;99.90
32428;DHT22;18882;50.952;4.366;2024-02-15T13:52:30;19.10;99.90
32428;DHT22;18882;50.952;4.366;2024-02-15T13:54:56;19.20;99.90
32428;DHT22;18882;50.952;4.366;2024-02-15T13:57:22;19.20;99.90
32428;DHT22;18882;50.952;4.366;2024-02-15T13:59:48;19.20;99.90
32428;DHT22;18882;50.952;4.366;2024-02-15T14:02:14;19.10;99.90
32428;DHT22;18882;50.952;4.366;2024-02-15T14:04:40;19.20;99.90
32428;DHT22;18882;50.952;4.366;2024-02-15T14:07:05;19.30;99.90
32428;DHT22;18882;50.952;4.366;2024-02-15T14:09:31;19.20;99.90
32428;DHT22;18882;50.952;4.366;2024-02-15T14:11:57;19.10;99.90
32428;DHT22;18882;50.952;4.366;2024-02-15T14:14:23;19.00;99.90
32428;DHT22;18882;50.952;4.366;2024-02-15T14:16:49;18.80;99.90
32428;DHT22;18882;50.952;4.366;2024-02-15T14:19:15;18.80;99.90
32428;DHT22;18882;50.952;4.366;2024-02-15T14:21:40;18.70;99.90
32428;DHT22;18882;50.952;4.366;2024-02-15T14:24:08;18.80;99.90
32428;DHT22;18882;50.952;4.366;2024-02-15T14:26:34;18.60;99.90
32428;DHT22;18882;50.952;4.366;2024-02-15T14:28:59;18.60;99.90
32428;DHT22;18882;50.952;4.366;2024-02-15T14:31:28;18.60;99.90
32428;DHT22;18882;50.952;4.366;2024-02-15T14:34:12;18.60;99.90
32428;DHT22;18882;50.952;4.366;2024-02-15T14:36:38;18.40;99.90
32428;DHT22;18882;50.952;4.366;2024-02-15T14:39:03;18.40;99.90
32428;DHT22;18882;50.952;4.366;2024-02-15T14:41:30;18.40;99.90
32428;DHT22;18882;50.952;4.366;2024-02-15T14:43:56;18.40;99.90
32428;DHT22;18882;50.952;4.366;2024-02-15T14:46:22;18.40;99.90
32428;DHT22;18882;50.952;4.366;2024-02-15T14:48:49;18.30;99.90
32428;DHT22;18882;50.952;4.366;2024-02-15T14:51:15;18.30;99.90
32428;DHT22;18882;50.952;4.366;2024-02-15T14:53:43;18.30;99.90
32428;DHT22;18882;50.952;4.366;2024-02-15T14:56:09;18.40;99.90
32428;DHT22;18882;50.952;4.366;2024-02-15T14:58:35;18.40;99.90
32428;DHT22;18882;50.952;4.366;2024-02-15T15:01:01;18.40;99.90
32428;DHT22;18882;50.952;4.366;2024-02-15T15:03:30;18.40;99.90
32428;DHT22;18882;50.952;4.366;2024-02-15T15:05:59;18.30;99.90
32428;DHT22;18882;50.952;4.366;2024-02-15T15:08:43;18.20;99.90
32428;DHT22;18882;50.952;4.366;2024-02-15T15:11:27;18.10;99.90
32428;DHT22;18882;50.952;4.366;2024-02-15T15:14:11;18.10;99.90
32428;DHT22;18882;50.952;4.366;2024-02-15T15:16:37;17.90;99.90
32428;DHT22;18882;50.952;4.366;2024-02-15T15:19:03;17.80;99.90
32428;DHT22;18882;50.952;4.366;2024-02-15T15:21:29;17.80;99.90
32428;DHT22;18882;50.952;4.366;2024-02-15T15:23:54;17.80;99.90
32428;DHT22;18882;50.952;4.366;2024-02-15T15:26:21;17.90;99.90
32428;DHT22;18882;50.952;4.366;2024-02-15T15:28:47;17.90;99.90
32428;DHT22;18882;50.952;4.366;2024-02-15T15:31:13;17.80;99.90
32428;DHT22;18882;50.952;4.366;2024-02-15T15:33:41;17.60;99.90
32428;DHT22;18882;50.952;4.366;2024-02-15T15:36:07;17.60;99.90
32428;DHT22;18882;50.952;4.366;2024-02-15T15:38:32;17.70;99.90
32428;DHT22;18882;50.952;4.366;2024-02-15T15:40:58;17.80;99.90
32428;DHT22;18882;50.952;4.366;2024-02-15T15:43:24;17.80;99.90
32428;DHT22;18882;50.952;4.366;2024-02-15T15:45:50;17.90;99.90
32428;DHT22;18882;50.952;4.366;2024-02-15T15:48:20;17.80;99.90
32428;DHT22;18882;50.952;4.366;2024-02-15T15:50:46;17.70;99.90
32428;DHT22;18882;50.952;4.366;2024-02-15T15:53:13;17.50;99.90
32428;DHT22;18882;50.952;4.366;2024-02-15T15:55:39;17.50;99.90
32428;DHT22;18882;50.952;4.366;2024-02-15T15:58:04;17.30;99.90
32428;DHT22;18882;50.952;4.366;2024-02-15T16:00:33;17.10;99.90
32428;DHT22;18882;50.952;4.366;2024-02-15T16:03:01;16.90;99.90
32428;DHT22;18882;50.952;4.366;2024-02-15T16:05:27;16.70;99.90
32428;DHT22;18882;50.952;4.366;2024-02-15T16:07:53;16.70;99.90
32428;DHT22;18882;50.952;4.366;2024-02-15T16:10:19;16.60;99.90
32428;DHT22;18882;50.952;4.366;2024-02-15T16:12:49;16.50;99.90
32428;DHT22;18882;50.952;4.366;2024-02-15T16:15:16;16.50;99.90
32428;DHT22;18882;50.952;4.366;2024-02-15T16:17:45;16.40;99.90
32428;DHT22;18882;50.952;4.366;2024-02-15T16:20:12;16.30;99.90
32428;DHT22;18882;50.952;4.366;2024-02-15T16:22:39;16.20;99.90
32428;DHT22;18882;50.952;4.366;2024-02-15T16:25:07;16.10;99.90
32428;DHT22;18882;50.952;4.366;2024-02-15T16:30:04;16.10;99.90
32428;DHT22;18882;50.952;4.366;2024-02-15T16:32:33;16.10;99.90
32428;DHT22;18882;50.952;4.366;2024-02-15T16:34:59;16.10;99.90
32428;DHT22;18882;50.952;4.366;2024-02-15T16:37:25;16.10;99.90
32428;DHT22;18882;50.952;4.366;2024-02-15T16:39:52;16.00;99.90
32428;DHT22;18882;50.952;4.366;2024-02-15T16:42:18;16.10;99.90
32428;DHT22;18882;50.952;4.366;2024-02-15T16:44:44;16.10;99.90
32428;DHT22;18882;50.952;4.366;2024-02-15T16:47:13;16.00;99.90
32428;DHT22;18882;50.952;4.366;2024-02-15T16:49:39;16.00;99.90
32428;DHT22;18882;50.952;4.366;2024-02-15T16:52:06;15.90;99.90
32428;DHT22;18882;50.952;4.366;2024-02-15T16:54:31;15.80;99.90
32428;DHT22;18882;50.952;4.366;2024-02-15T16:56:57;15.70;99.90
32428;DHT22;18882;50.952;4.366;2024-02-15T16:59:23;15.60;99.90
32428;DHT22;18882;50.952;4.366;2024-02-15T17:01:49;15.60;99.90
32428;DHT22;18882;50.952;4.366;2024-02-15T17:04:15;15.50;99.90
32428;DHT22;18882;50.952;4.366;2024-02-15T17:06:42;15.50;99.90
32428;DHT22;18882;50.952;4.366;2024-02-15T17:09:08;15.50;99.90
32428;DHT22;18882;50.952;4.366;2024-02-15T17:11:34;15.50;99.90
32428;DHT22;18882;50.952;4.366;2024-02-15T17:14:01;15.50;99.90
32428;DHT22;18882;50.952;4.366;2024-02-15T17:16:28;15.50;99.90
32428;DHT22;18882;50.952;4.366;2024-02-15T17:18:54;15.50;99.90
32428;DHT22;18882;50.952;4.366;2024-02-15T17:21:19;15.40;99.90
32428;DHT22;18882;50.952;4.366;2024-02-15T17:23:45;15.30;99.90
32428;DHT22;18882;50.952;4.366;2024-02-15T17:26:12;15.40;99.90
32428;DHT22;18882;50.952;4.366;2024-02-15T17:28:38;15.30;99.90
32428;DHT22;18882;50.952;4.366;2024-02-15T17:31:04;15.30;99.90
32428;DHT22;18882;50.952;4.366;2024-02-15T17:33:39;15.30;99.90
32428;DHT22;18882;50.952;4.366;2024-02-15T17:36:06;15.20;99.90
32428;DHT22;18882;50.952;4.366;2024-02-15T17:38:31;15.30;99.90
32428;DHT22;18882;50.952;4.366;2024-02-15T17:41:00;15.30;99.90
32428;DHT22;18882;50.952;4.366;2024-02-15T17:43:26;15.20;99.90
32428;DHT22;18882;50.952;4.366;2024-02-15T17:45:52;15.20;99.90
32428;DHT22;18882;50.952;4.366;2024-02-15T17:48:18;15.20;99.90
32428;DHT22;18882;50.952;4.366;2024-02-15T17:50:48;15.20;99.90
32428;DHT22;18882;50.952;4.366;2024-02-15T17:53:17;15.20;99.90
32428;DHT22;18882;50.952;4.366;2024-02-15T17:55:42;15.10;99.90
32428;DHT22;18882;50.952;4.366;2024-02-15T17:58:11;15.10;99.90
32428;DHT22;18882;50.952;4.366;2024-02-15T18:00:36;15.00;99.90
32428;DHT22;18882;50.952;4.366;2024-02-15T18:03:06;14.90;99.90
32428;DHT22;18882;50.952;4.366;2024-02-15T18:05:33;14.90;99.90
32428;DHT22;18882;50.952;4.366;2024-02-15T18:07:59;14.80;99.90
32428;DHT22;18882;50.952;4.366;2024-02-15T18:10:24;14.90;99.90
32428;DHT22;18882;50.952;4.366;2024-02-15T18:12:50;14.90;99.90
32428;DHT22;18882;50.952;4.366;2024-02-15T18:15:17;14.80;99.90
32428;DHT22;18882;50.952;4.366;2024-02-15T18:17:50;14.90;99.90
32428;DHT22;18882;50.952;4.366;2024-02-15T18:20:16;14.90;99.90
32428;DHT22;18882;50.952;4.366;2024-02-15T18:22:44;14.90;99.90
32428;DHT22;18882;50.952;4.366;2024-02-15T18:25:11;14.90;99.90
32428;DHT22;18882;50.952;4.366;2024-02-15T18:27:36;14.80;99.90
32428;DHT22;18882;50.952;4.366;2024-02-15T18:30:06;14.80;99.90
32428;DHT22;18882;50.952;4.366;2024-02-15T18:32:38;14.80;99.90
32428;DHT22;18882;50.952;4.366;2024-02-15T18:35:08;14.80;99.90
32428;DHT22;18882;50.952;4.366;2024-02-15T18:37:39;14.80;99.90
32428;DHT22;18882;50.952;4.366;2024-02-15T18:40:06;14.80;99.90
32428;DHT22;18882;50.952;4.366;2024-02-15T18:42:34;14.80;99.90
32428;DHT22;18882;50.952;4.366;2024-02-15T18:45:01;14.80;99.90
32428;DHT22;18882;50.952;4.366;2024-02-15T18:47:28;14.70;99.90
32428;DHT22;18882;50.952;4.366;2024-02-15T18:49:55;14.70;99.90
32428;DHT22;18882;50.952;4.366;2024-02-15T18:52:21;14.70;99.90
32428;DHT22;18882;50.952;4.366;2024-02-15T18:54:46;14.70;99.90
32428;DHT22;18882;50.952;4.366;2024-02-15T18:57:13;14.70;99.90
32428;DHT22;18882;50.952;4.366;2024-02-15T18:59:39;14.70;99.90
32428;DHT22;18882;50.952;4.366;2024-02-15T19:02:05;14.70;99.90
32428;DHT22;18882;50.952;4.366;2024-02-15T19:04:34;14.70;99.90
32428;DHT22;18882;50.952;4.366;2024-02-15T19:07:01;14.70;99.90
32428;DHT22;18882;50.952;4.366;2024-02-15T19:09:27;14.70;99.90